Alpena, MI

9:40 AM EDT on July 04, 2015 (GMT -0400)
APRSWXNET | | Change Station
CLOSE
Current Station
Personal Weather Station
Location: Alpena, MI
Elevation: 593 ft
Nearby Weather Stations

Elev 593 ft 45.05 °N, 83.45 °W | Updated 32 minutes ago

Partly Cloudy
Partly Cloudy
67 °F
Feels Like 67 °F
N
1
Wind Variable Wind from West
Gusts 5.0 mph

Today
High -- | Low -- °F
--% Chance of Precip.
Yesterday
High -- | Low -- °F
Precip. -- in
5:52 AM 9:23 PM
Waning Gibbous, 92% visible
Pressure 29.95 in
Visibility 10.0 miles
Clouds Scattered Clouds 5500 ft
Dew Point 56 °F
Humidity 68%
Rainfall in
Snow Depth Not available.
UV 2 out of 12
Pollen 4.40 out of 12
Air Quality Not available.
Flu Activity Not available.
METAR KAPN 041254Z AUTO 26006KT 10SM SCT055 20/11 A2995 RMK AO2 SLP141 T02000111

More Conditions Fewer Conditions

Pressure 29.95 in
Visibility 10.0 miles
Clouds Scattered Clouds 5500 ft
Dew Point 56 °F
Humidity 68%
Rainfall in
Snow Depth Not available.
UV 2 out of 12
Pollen 4.40 out of 12
Air Quality Not available.
Flu Activity Not available.
METAR KAPN 041254Z AUTO 26006KT 10SM SCT055 20/11 A2995 RMK AO2 SLP141 T02000111

More Conditions Fewer Conditions

Nowcast | as of 9:00 am EDT on July 4, 2015

At 10 am...partly cloudy. Temperature 68. Northwest winds 5 mph. At 12 PM...partly cloudy. Temperature 73. Northwest winds 5 mph. At 2 PM...partly cloudy. Temperature 76. North winds 6 mph. At 4 PM...partly cloudy. Temperature 76. Northeast winds 7 mph.

×

10-Day Weather Forecast

×

Almanac

Astronomy

Jul. 04, 2015 Rise Set
Actual Time
Civil Twilight
Nautical Twilight
Astronomical Twilight
Moon
Length of Visible Light
Length of Day
Tomorrow will be .
, % of the Moon is Illuminated

Today's Extremes

State Highs State Lows

Community

WunderPhotos

Upload Photos

1,834,965 photos uploaded!

WunderBlogs® & News

Nearby

Air Quality

  Air Quality AQ Index Pollutant
Not available.

Snow Depth

Station Depth Elevation

Earthquake Activity

City Distance Mag. Time & Date
Minimum magnitude displayed is 2.5.

Coastal Water Temperatures

Place Temperature

Stations

Nearby Weather Stations

Station Location Temp. Windchill Dew Point Humidity Wind Precip. Elev Updated Type